Main page
METAR-TAF:

METAR-TAF

Airports :

Military air base

Tulln an der Donau, Austria

latitude: 48-19N, longitude: 016-07E, elevation: 175 m

METAR: missing

Time: 08:02 (07:02 UTC)

Forecast

The report was made 47 minutes ago, at 06:15 UTC
Forecast valid from 21 at 06 UTC to 21 at 15 UTC
Wind 3 kt from variable directions
Visibility: 3000 m
Broken clouds at a height of 700 ft
mist
Probability 40% :
Temporary
from 21 at 06 UTC to 21 at 09 UTC
Visibility: 0500 m
at a height of 300 ft
light drizzle, fog
Becoming
from 21 at 09 UTC to 21 at 11 UTC
Wind 8 kt from the East
Visibility: 8000 m
Scattered clouds at a height of 1000 ft
Broken clouds at a height of 1500 ft
Becoming
from 21 at 12 UTC to 21 at 14 UTC
Visibility 10 km or more
Few clouds at a height of 3000 ft

TAF: LOXT 210615Z 2106/2115 VRB03KT 3000 BR BKN007 PROB40 TEMPO 2106/2109 0500 -DZ FG VV003 BECMG 2109/2111 10008KT 8000 SCT010 BKN015 BECMG 2112/2114 9999 FEW030

Weather observations and forecasts of more than 4000 airports (METAR and TAF reports).

The available stations are represented by yellow and red dots on the map.

Hover mouse over dot to see the name of the station.

Then click to see weather observations and forecasts.

To change the map : click on the green buttons with a black cross to zoom in, on the green button with a dash to zoom out, or on the green arrows for adjacent maps.


METAR-TAF: